sensor_id;sensor_type;location;lat;lon;timestamp;P1;durP1;ratioP1;P2;durP2;ratioP2
83595;SDS011;73564;45.026;38.952;2024-01-15T00:01:50;0.73;;;0.50;;
83595;SDS011;73564;45.026;38.952;2024-01-15T00:04:16;1.40;;;0.43;;
83595;SDS011;73564;45.026;38.952;2024-01-15T00:06:42;0.73;;;0.55;;
83595;SDS011;73564;45.026;38.952;2024-01-15T00:09:07;0.63;;;0.35;;
83595;SDS011;73564;45.026;38.952;2024-01-15T00:14:00;1.08;;;0.30;;
83595;SDS011;73564;45.026;38.952;2024-01-15T00:16:26;0.52;;;0.28;;
83595;SDS011;73564;45.026;38.952;2024-01-15T00:18:52;3.40;;;0.70;;
83595;SDS011;73564;45.026;38.952;2024-01-15T00:21:17;0.60;;;0.52;;
83595;SDS011;73564;45.026;38.952;2024-01-15T00:23:43;0.77;;;0.40;;
83595;SDS011;73564;45.026;38.952;2024-01-15T00:26:09;0.85;;;0.55;;
83595;SDS011;73564;45.026;38.952;2024-01-15T00:28:39;1.40;;;0.65;;
83595;SDS011;73564;45.026;38.952;2024-01-15T00:31:05;1.13;;;0.47;;
83595;SDS011;73564;45.026;38.952;2024-01-15T00:33:30;1.52;;;0.93;;
83595;SDS011;73564;45.026;38.952;2024-01-15T00:35:56;1.50;;;0.60;;
83595;SDS011;73564;45.026;38.952;2024-01-15T00:38:22;1.10;;;0.57;;
83595;SDS011;73564;45.026;38.952;2024-01-15T00:40:48;1.67;;;0.70;;
83595;SDS011;73564;45.026;38.952;2024-01-15T00:43:14;1.20;;;0.30;;
83595;SDS011;73564;45.026;38.952;2024-01-15T00:45:40;1.67;;;0.55;;
83595;SDS011;73564;45.026;38.952;2024-01-15T00:48:06;3.40;;;0.65;;
83595;SDS011;73564;45.026;38.952;2024-01-15T00:50:32;2.15;;;0.20;;
83595;SDS011;73564;45.026;38.952;2024-01-15T00:52:57;2.15;;;0.38;;
83595;SDS011;73564;45.026;38.952;2024-01-15T00:55:23;0.60;;;0.40;;
83595;SDS011;73564;45.026;38.952;2024-01-15T00:57:49;1.70;;;0.55;;
83595;SDS011;73564;45.026;38.952;2024-01-15T01:00:15;1.00;;;0.40;;
83595;SDS011;73564;45.026;38.952;2024-01-15T01:02:41;1.38;;;0.55;;
83595;SDS011;73564;45.026;38.952;2024-01-15T01:05:07;1.45;;;0.22;;
83595;SDS011;73564;45.026;38.952;2024-01-15T01:07:33;1.95;;;0.40;;
83595;SDS011;73564;45.026;38.952;2024-01-15T01:09:59;2.25;;;0.50;;
83595;SDS011;73564;45.026;38.952;2024-01-15T01:12:24;0.55;;;0.40;;
83595;SDS011;73564;45.026;38.952;2024-01-15T01:14:50;0.90;;;0.32;;
83595;SDS011;73564;45.026;38.952;2024-01-15T01:17:16;1.77;;;0.55;;
83595;SDS011;73564;45.026;38.952;2024-01-15T01:19:41;0.95;;;0.35;;
83595;SDS011;73564;45.026;38.952;2024-01-15T01:22:07;0.90;;;0.22;;
83595;SDS011;73564;45.026;38.952;2024-01-15T01:24:33;3.95;;;0.47;;
83595;SDS011;73564;45.026;38.952;2024-01-15T01:26:58;2.75;;;0.50;;
83595;SDS011;73564;45.026;38.952;2024-01-15T01:29:24;1.85;;;0.50;;
83595;SDS011;73564;45.026;38.952;2024-01-15T01:31:51;1.52;;;0.47;;
83595;SDS011;73564;45.026;38.952;2024-01-15T01:34:17;5.80;;;0.80;;
83595;SDS011;73564;45.026;38.952;2024-01-15T01:36:43;2.40;;;0.45;;
83595;SDS011;73564;45.026;38.952;2024-01-15T01:39:08;1.52;;;0.40;;
83595;SDS011;73564;45.026;38.952;2024-01-15T01:41:35;2.50;;;0.57;;
83595;SDS011;73564;45.026;38.952;2024-01-15T01:44:01;2.47;;;0.60;;
83595;SDS011;73564;45.026;38.952;2024-01-15T01:46:27;2.53;;;0.52;;
83595;SDS011;73564;45.026;38.952;2024-01-15T01:48:53;2.35;;;0.40;;
83595;SDS011;73564;45.026;38.952;2024-01-15T01:53:48;1.92;;;0.50;;
83595;SDS011;73564;45.026;38.952;2024-01-15T01:56:15;2.05;;;0.43;;
83595;SDS011;73564;45.026;38.952;2024-01-15T01:58:41;5.10;;;0.80;;
83595;SDS011;73564;45.026;38.952;2024-01-15T02:01:07;2.30;;;0.70;;
83595;SDS011;73564;45.026;38.952;2024-01-15T02:03:33;1.80;;;0.55;;
83595;SDS011;73564;45.026;38.952;2024-01-15T02:06:00;3.55;;;0.95;;
83595;SDS011;73564;45.026;38.952;2024-01-15T02:08:26;0.95;;;0.45;;
83595;SDS011;73564;45.026;38.952;2024-01-15T02:10:52;4.55;;;0.95;;
83595;SDS011;73564;45.026;38.952;2024-01-15T02:13:18;1.55;;;0.20;;
83595;SDS011;73564;45.026;38.952;2024-01-15T02:15:44;4.82;;;1.25;;
83595;SDS011;73564;45.026;38.952;2024-01-15T02:18:10;2.05;;;0.35;;
83595;SDS011;73564;45.026;38.952;2024-01-15T02:20:35;1.40;;;0.32;;
83595;SDS011;73564;45.026;38.952;2024-01-15T02:25:40;2.60;;;0.77;;
83595;SDS011;73564;45.026;38.952;2024-01-15T02:28:13;2.63;;;0.40;;
83595;SDS011;73564;45.026;38.952;2024-01-15T02:30:40;0.82;;;0.30;;
83595;SDS011;73564;45.026;38.952;2024-01-15T02:33:07;1.65;;;0.13;;
83595;SDS011;73564;45.026;38.952;2024-01-15T02:35:34;2.65;;;0.40;;
83595;SDS011;73564;45.026;38.952;2024-01-15T02:38:02;3.00;;;0.60;;
83595;SDS011;73564;45.026;38.952;2024-01-15T02:40:28;1.30;;;0.50;;
83595;SDS011;73564;45.026;38.952;2024-01-15T02:42:54;1.65;;;0.55;;
83595;SDS011;73564;45.026;38.952;2024-01-15T02:45:21;1.73;;;0.30;;
83595;SDS011;73564;45.026;38.952;2024-01-15T02:50:13;0.40;;;0.17;;
83595;SDS011;73564;45.026;38.952;2024-01-15T02:52:38;0.38;;;0.20;;
83595;SDS011;73564;45.026;38.952;2024-01-15T02:55:04;1.27;;;0.40;;
83595;SDS011;73564;45.026;38.952;2024-01-15T02:57:31;1.85;;;0.55;;
83595;SDS011;73564;45.026;38.952;2024-01-15T02:59:56;1.27;;;0.40;;
83595;SDS011;73564;45.026;38.952;2024-01-15T03:02:22;1.65;;;0.50;;
83595;SDS011;73564;45.026;38.952;2024-01-15T03:04:48;1.00;;;0.25;;
83595;SDS011;73564;45.026;38.952;2024-01-15T03:07:13;1.30;;;0.40;;
83595;SDS011;73564;45.026;38.952;2024-01-15T03:09:39;0.98;;;0.45;;
83595;SDS011;73564;45.026;38.952;2024-01-15T03:12:05;2.28;;;0.30;;
83595;SDS011;73564;45.026;38.952;2024-01-15T03:14:31;1.38;;;0.30;;
83595;SDS011;73564;45.026;38.952;2024-01-15T03:16:57;1.63;;;0.65;;
83595;SDS011;73564;45.026;38.952;2024-01-15T03:19:23;2.15;;;0.47;;
83595;SDS011;73564;45.026;38.952;2024-01-15T03:21:48;3.38;;;0.22;;
83595;SDS011;73564;45.026;38.952;2024-01-15T03:24:14;1.38;;;0.50;;
83595;SDS011;73564;45.026;38.952;2024-01-15T03:26:40;1.88;;;0.65;;
83595;SDS011;73564;45.026;38.952;2024-01-15T03:29:06;1.08;;;0.40;;
83595;SDS011;73564;45.026;38.952;2024-01-15T03:31:32;1.08;;;0.43;;
83595;SDS011;73564;45.026;38.952;2024-01-15T03:33:58;2.55;;;0.40;;
83595;SDS011;73564;45.026;38.952;2024-01-15T03:36:23;0.90;;;0.40;;
83595;SDS011;73564;45.026;38.952;2024-01-15T03:38:49;2.00;;;0.73;;
83595;SDS011;73564;45.026;38.952;2024-01-15T03:41:15;1.30;;;0.50;;
83595;SDS011;73564;45.026;38.952;2024-01-15T03:43:41;2.53;;;0.63;;
83595;SDS011;73564;45.026;38.952;2024-01-15T03:46:06;5.70;;;1.13;;
83595;SDS011;73564;45.026;38.952;2024-01-15T03:48:32;3.08;;;0.60;;
83595;SDS011;73564;45.026;38.952;2024-01-15T03:50:58;4.72;;;0.80;;
83595;SDS011;73564;45.026;38.952;2024-01-15T03:53:24;1.80;;;0.52;;
83595;SDS011;73564;45.026;38.952;2024-01-15T03:55:49;0.57;;;0.28;;
83595;SDS011;73564;45.026;38.952;2024-01-15T03:58:15;4.40;;;0.82;;
83595;SDS011;73564;45.026;38.952;2024-01-15T04:00:41;4.22;;;0.77;;
83595;SDS011;73564;45.026;38.952;2024-01-15T04:03:08;3.42;;;0.60;;
83595;SDS011;73564;45.026;38.952;2024-01-15T04:05:33;1.65;;;0.28;;
83595;SDS011;73564;45.026;38.952;2024-01-15T04:07:59;0.98;;;0.60;;
83595;SDS011;73564;45.026;38.952;2024-01-15T04:10:25;2.08;;;0.63;;
83595;SDS011;73564;45.026;38.952;2024-01-15T04:12:51;2.95;;;0.60;;
83595;SDS011;73564;45.026;38.952;2024-01-15T04:15:17;1.40;;;0.50;;
83595;SDS011;73564;45.026;38.952;2024-01-15T04:17:42;1.10;;;0.40;;
83595;SDS011;73564;45.026;38.952;2024-01-15T04:20:08;0.88;;;0.43;;
83595;SDS011;73564;45.026;38.952;2024-01-15T04:22:35;1.00;;;0.35;;
83595;SDS011;73564;45.026;38.952;2024-01-15T04:25:01;1.42;;;0.30;;
83595;SDS011;73564;45.026;38.952;2024-01-15T04:27:27;1.77;;;0.65;;
83595;SDS011;73564;45.026;38.952;2024-01-15T04:29:53;0.88;;;0.30;;
83595;SDS011;73564;45.026;38.952;2024-01-15T04:32:19;1.02;;;0.45;;
83595;SDS011;73564;45.026;38.952;2024-01-15T04:34:44;0.65;;;0.35;;
83595;SDS011;73564;45.026;38.952;2024-01-15T04:37:10;1.73;;;0.65;;
83595;SDS011;73564;45.026;38.952;2024-01-15T04:39:36;0.65;;;0.30;;
83595;SDS011;73564;45.026;38.952;2024-01-15T04:42:02;1.60;;;0.50;;
83595;SDS011;73564;45.026;38.952;2024-01-15T04:44:28;2.15;;;0.60;;
83595;SDS011;73564;45.026;38.952;2024-01-15T04:46:54;1.60;;;0.93;;
83595;SDS011;73564;45.026;38.952;2024-01-15T04:49:20;1.13;;;0.43;;
83595;SDS011;73564;45.026;38.952;2024-01-15T04:51:45;1.38;;;0.45;;
83595;SDS011;73564;45.026;38.952;2024-01-15T04:54:11;1.20;;;0.63;;
83595;SDS011;73564;45.026;38.952;2024-01-15T04:56:37;1.02;;;0.40;;
83595;SDS011;73564;45.026;38.952;2024-01-15T04:59:03;2.10;;;0.90;;
83595;SDS011;73564;45.026;38.952;2024-01-15T05:01:32;1.50;;;0.50;;
83595;SDS011;73564;45.026;38.952;2024-01-15T05:03:58;6.18;;;0.70;;
83595;SDS011;73564;45.026;38.952;2024-01-15T05:06:24;2.33;;;0.80;;
83595;SDS011;73564;45.026;38.952;2024-01-15T05:08:50;5.60;;;0.98;;
83595;SDS011;73564;45.026;38.952;2024-01-15T05:11:16;4.38;;;1.67;;
83595;SDS011;73564;45.026;38.952;2024-01-15T05:13:42;3.92;;;1.20;;
83595;SDS011;73564;45.026;38.952;2024-01-15T05:16:07;2.00;;;0.88;;
83595;SDS011;73564;45.026;38.952;2024-01-15T05:18:33;1.63;;;0.90;;
83595;SDS011;73564;45.026;38.952;2024-01-15T05:20:59;6.35;;;1.08;;
83595;SDS011;73564;45.026;38.952;2024-01-15T05:23:24;5.10;;;2.10;;
83595;SDS011;73564;45.026;38.952;2024-01-15T05:25:50;4.10;;;1.38;;
83595;SDS011;73564;45.026;38.952;2024-01-15T05:28:16;10.55;;;1.80;;
83595;SDS011;73564;45.026;38.952;2024-01-15T05:30:42;4.15;;;1.30;;
83595;SDS011;73564;45.026;38.952;2024-01-15T05:33:08;4.00;;;1.77;;
83595;SDS011;73564;45.026;38.952;2024-01-15T05:35:34;7.45;;;2.30;;
83595;SDS011;73564;45.026;38.952;2024-01-15T05:37:59;7.78;;;1.52;;
83595;SDS011;73564;45.026;38.952;2024-01-15T05:40:26;4.72;;;1.10;;
83595;SDS011;73564;45.026;38.952;2024-01-15T05:42:51;2.55;;;1.13;;
83595;SDS011;73564;45.026;38.952;2024-01-15T05:45:17;4.18;;;1.88;;
83595;SDS011;73564;45.026;38.952;2024-01-15T05:47:43;3.75;;;1.70;;
83595;SDS011;73564;45.026;38.952;2024-01-15T05:50:09;4.70;;;1.35;;
83595;SDS011;73564;45.026;38.952;2024-01-15T05:52:35;2.90;;;1.70;;
83595;SDS011;73564;45.026;38.952;2024-01-15T05:55:01;3.70;;;1.10;;
83595;SDS011;73564;45.026;38.952;2024-01-15T05:57:27;3.53;;;1.50;;
83595;SDS011;73564;45.026;38.952;2024-01-15T05:59:53;3.13;;;1.40;;
83595;SDS011;73564;45.026;38.952;2024-01-15T06:02:19;4.05;;;1.30;;
83595;SDS011;73564;45.026;38.952;2024-01-15T06:04:45;3.10;;;1.25;;
83595;SDS011;73564;45.026;38.952;2024-01-15T06:07:11;3.35;;;1.38;;
83595;SDS011;73564;45.026;38.952;2024-01-15T06:09:37;1.98;;;1.08;;
83595;SDS011;73564;45.026;38.952;2024-01-15T06:12:04;2.55;;;0.82;;
83595;SDS011;73564;45.026;38.952;2024-01-15T06:14:30;2.67;;;1.38;;
83595;SDS011;73564;45.026;38.952;2024-01-15T06:16:56;3.13;;;1.27;;
83595;SDS011;73564;45.026;38.952;2024-01-15T06:19:22;5.03;;;1.75;;
83595;SDS011;73564;45.026;38.952;2024-01-15T06:21:47;4.32;;;1.55;;
83595;SDS011;73564;45.026;38.952;2024-01-15T06:24:13;3.28;;;1.83;;
83595;SDS011;73564;45.026;38.952;2024-01-15T06:26:40;6.05;;;1.50;;
83595;SDS011;73564;45.026;38.952;2024-01-15T06:29:06;7.63;;;1.80;;
83595;SDS011;73564;45.026;38.952;2024-01-15T06:31:31;4.90;;;1.13;;
83595;SDS011;73564;45.026;38.952;2024-01-15T06:33:57;4.63;;;1.70;;
83595;SDS011;73564;45.026;38.952;2024-01-15T06:36:23;3.85;;;1.52;;
83595;SDS011;73564;45.026;38.952;2024-01-15T06:38:49;3.53;;;1.05;;
83595;SDS011;73564;45.026;38.952;2024-01-15T06:41:15;2.65;;;1.05;;
83595;SDS011;73564;45.026;38.952;2024-01-15T06:43:40;2.85;;;1.02;;
83595;SDS011;73564;45.026;38.952;2024-01-15T06:46:06;2.65;;;1.60;;
83595;SDS011;73564;45.026;38.952;2024-01-15T06:48:32;2.63;;;1.10;;
83595;SDS011;73564;45.026;38.952;2024-01-15T06:50:57;2.42;;;1.05;;
83595;SDS011;73564;45.026;38.952;2024-01-15T06:53:23;2.53;;;1.10;;
83595;SDS011;73564;45.026;38.952;2024-01-15T06:55:49;3.65;;;1.05;;
83595;SDS011;73564;45.026;38.952;2024-01-15T06:58:16;3.38;;;1.30;;
83595;SDS011;73564;45.026;38.952;2024-01-15T07:00:42;2.47;;;1.10;;
83595;SDS011;73564;45.026;38.952;2024-01-15T07:03:08;1.35;;;0.70;;
83595;SDS011;73564;45.026;38.952;2024-01-15T07:05:33;1.48;;;0.80;;
83595;SDS011;73564;45.026;38.952;2024-01-15T07:07:59;3.72;;;1.23;;
83595;SDS011;73564;45.026;38.952;2024-01-15T07:10:25;2.47;;;1.02;;
83595;SDS011;73564;45.026;38.952;2024-01-15T07:12:51;2.40;;;0.75;;
83595;SDS011;73564;45.026;38.952;2024-01-15T07:15:17;2.75;;;0.93;;
83595;SDS011;73564;45.026;38.952;2024-01-15T07:17:43;3.53;;;0.90;;
83595;SDS011;73564;45.026;38.952;2024-01-15T07:20:08;4.20;;;0.82;;
83595;SDS011;73564;45.026;38.952;2024-01-15T07:22:38;2.00;;;1.20;;
83595;SDS011;73564;45.026;38.952;2024-01-15T07:25:04;1.90;;;0.93;;
83595;SDS011;73564;45.026;38.952;2024-01-15T07:27:31;1.15;;;0.60;;
83595;SDS011;73564;45.026;38.952;2024-01-15T07:29:57;2.35;;;0.98;;
83595;SDS011;73564;45.026;38.952;2024-01-15T07:32:23;2.38;;;0.85;;
83595;SDS011;73564;45.026;38.952;2024-01-15T07:34:49;2.55;;;0.65;;
83595;SDS011;73564;45.026;38.952;2024-01-15T07:37:15;3.25;;;0.70;;
83595;SDS011;73564;45.026;38.952;2024-01-15T07:39:41;0.80;;;0.50;;
83595;SDS011;73564;45.026;38.952;2024-01-15T07:42:06;1.00;;;0.50;;
83595;SDS011;73564;45.026;38.952;2024-01-15T07:44:33;2.22;;;0.85;;
83595;SDS011;73564;45.026;38.952;2024-01-15T07:46:58;3.92;;;1.45;;
83595;SDS011;73564;45.026;38.952;2024-01-15T07:49:24;3.45;;;0.88;;
83595;SDS011;73564;45.026;38.952;2024-01-15T07:51:50;2.92;;;1.20;;
83595;SDS011;73564;45.026;38.952;2024-01-15T07:54:16;2.47;;;0.85;;
83595;SDS011;73564;45.026;38.952;2024-01-15T07:56:57;3.53;;;1.15;;
83595;SDS011;73564;45.026;38.952;2024-01-15T07:59:28;6.25;;;1.10;;
83595;SDS011;73564;45.026;38.952;2024-01-15T08:01:54;2.00;;;0.85;;
83595;SDS011;73564;45.026;38.952;2024-01-15T08:04:20;3.75;;;1.02;;
83595;SDS011;73564;45.026;38.952;2024-01-15T08:06:47;1.55;;;0.73;;
83595;SDS011;73564;45.026;38.952;2024-01-15T08:09:13;3.42;;;1.20;;
83595;SDS011;73564;45.026;38.952;2024-01-15T08:11:39;5.07;;;1.17;;
83595;SDS011;73564;45.026;38.952;2024-01-15T08:14:06;6.20;;;0.95;;
83595;SDS011;73564;45.026;38.952;2024-01-15T08:16:33;2.78;;;0.98;;
83595;SDS011;73564;45.026;38.952;2024-01-15T08:18:59;1.90;;;0.93;;
83595;SDS011;73564;45.026;38.952;2024-01-15T08:21:24;2.83;;;1.02;;
83595;SDS011;73564;45.026;38.952;2024-01-15T08:23:50;5.45;;;1.73;;
83595;SDS011;73564;45.026;38.952;2024-01-15T08:26:16;5.55;;;1.95;;
83595;SDS011;73564;45.026;38.952;2024-01-15T08:28:42;8.15;;;2.78;;
83595;SDS011;73564;45.026;38.952;2024-01-15T08:31:07;3.08;;;1.55;;
83595;SDS011;73564;45.026;38.952;2024-01-15T08:33:33;4.55;;;1.77;;
83595;SDS011;73564;45.026;38.952;2024-01-15T08:35:58;2.55;;;1.40;;
83595;SDS011;73564;45.026;38.952;2024-01-15T08:38:24;3.78;;;1.30;;
83595;SDS011;73564;45.026;38.952;2024-01-15T08:40:50;4.22;;;1.40;;
83595;SDS011;73564;45.026;38.952;2024-01-15T08:43:18;4.15;;;1.67;;
83595;SDS011;73564;45.026;38.952;2024-01-15T08:45:44;2.17;;;1.20;;
83595;SDS011;73564;45.026;38.952;2024-01-15T08:48:10;3.20;;;1.27;;
83595;SDS011;73564;45.026;38.952;2024-01-15T08:50:36;3.75;;;1.65;;
83595;SDS011;73564;45.026;38.952;2024-01-15T08:53:01;4.18;;;1.70;;
83595;SDS011;73564;45.026;38.952;2024-01-15T08:55:28;5.38;;;1.63;;
83595;SDS011;73564;45.026;38.952;2024-01-15T08:57:53;3.90;;;1.85;;
83595;SDS011;73564;45.026;38.952;2024-01-15T09:00:19;4.70;;;1.52;;
83595;SDS011;73564;45.026;38.952;2024-01-15T09:02:45;2.47;;;1.10;;
83595;SDS011;73564;45.026;38.952;2024-01-15T09:05:11;4.63;;;1.50;;
83595;SDS011;73564;45.026;38.952;2024-01-15T09:07:37;4.15;;;2.00;;
83595;SDS011;73564;45.026;38.952;2024-01-15T09:10:02;6.38;;;1.88;;
83595;SDS011;73564;45.026;38.952;2024-01-15T09:12:28;4.95;;;1.65;;
83595;SDS011;73564;45.026;38.952;2024-01-15T09:14:54;3.65;;;1.50;;
83595;SDS011;73564;45.026;38.952;2024-01-15T09:17:21;5.07;;;1.63;;
83595;SDS011;73564;45.026;38.952;2024-01-15T09:19:49;3.20;;;1.70;;
83595;SDS011;73564;45.026;38.952;2024-01-15T09:22:15;3.80;;;2.63;;
83595;SDS011;73564;45.026;38.952;2024-01-15T09:24:47;4.93;;;1.60;;
83595;SDS011;73564;45.026;38.952;2024-01-15T09:27:13;2.95;;;1.50;;
83595;SDS011;73564;45.026;38.952;2024-01-15T09:29:38;8.60;;;3.30;;
83595;SDS011;73564;45.026;38.952;2024-01-15T09:32:07;5.43;;;1.83;;
83595;SDS011;73564;45.026;38.952;2024-01-15T09:34:33;4.95;;;1.65;;
83595;SDS011;73564;45.026;38.952;2024-01-15T09:36:59;4.55;;;1.65;;
83595;SDS011;73564;45.026;38.952;2024-01-15T09:39:25;5.95;;;2.15;;
83595;SDS011;73564;45.026;38.952;2024-01-15T09:41:52;6.20;;;2.20;;
83595;SDS011;73564;45.026;38.952;2024-01-15T09:44:19;3.20;;;1.80;;
83595;SDS011;73564;45.026;38.952;2024-01-15T09:46:49;7.40;;;2.30;;
83595;SDS011;73564;45.026;38.952;2024-01-15T09:49:18;5.75;;;2.28;;
83595;SDS011;73564;45.026;38.952;2024-01-15T09:51:44;5.78;;;2.60;;
83595;SDS011;73564;45.026;38.952;2024-01-15T09:54:10;6.55;;;2.40;;
83595;SDS011;73564;45.026;38.952;2024-01-15T09:56:38;3.70;;;1.83;;
83595;SDS011;73564;45.026;38.952;2024-01-15T09:59:04;4.72;;;1.85;;
83595;SDS011;73564;45.026;38.952;2024-01-15T10:01:32;8.13;;;2.35;;
83595;SDS011;73564;45.026;38.952;2024-01-15T10:03:58;4.10;;;1.77;;
83595;SDS011;73564;45.026;38.952;2024-01-15T10:06:24;4.50;;;2.00;;
83595;SDS011;73564;45.026;38.952;2024-01-15T10:08:53;4.18;;;1.80;;
83595;SDS011;73564;45.026;38.952;2024-01-15T10:11:19;4.78;;;1.60;;
83595;SDS011;73564;45.026;38.952;2024-01-15T10:13:46;2.67;;;1.42;;
83595;SDS011;73564;45.026;38.952;2024-01-15T10:16:15;4.43;;;2.13;;
83595;SDS011;73564;45.026;38.952;2024-01-15T10:18:40;3.50;;;1.88;;
83595;SDS011;73564;45.026;38.952;2024-01-15T10:21:07;5.32;;;2.15;;
83595;SDS011;73564;45.026;38.952;2024-01-15T10:23:33;6.45;;;2.00;;
83595;SDS011;73564;45.026;38.952;2024-01-15T10:25:59;2.80;;;1.33;;
83595;SDS011;73564;45.026;38.952;2024-01-15T10:28:28;4.22;;;1.50;;
83595;SDS011;73564;45.026;38.952;2024-01-15T10:30:56;4.68;;;1.48;;
83595;SDS011;73564;45.026;38.952;2024-01-15T10:33:24;4.80;;;1.73;;
83595;SDS011;73564;45.026;38.952;2024-01-15T10:35:57;4.78;;;1.73;;
83595;SDS011;73564;45.026;38.952;2024-01-15T10:38:24;4.07;;;2.00;;
83595;SDS011;73564;45.026;38.952;2024-01-15T10:40:51;4.78;;;1.85;;
83595;SDS011;73564;45.026;38.952;2024-01-15T10:43:20;3.25;;;1.45;;
83595;SDS011;73564;45.026;38.952;2024-01-15T10:45:47;5.78;;;2.08;;
83595;SDS011;73564;45.026;38.952;2024-01-15T10:48:14;5.85;;;1.80;;
83595;SDS011;73564;45.026;38.952;2024-01-15T10:50:41;5.15;;;1.70;;
83595;SDS011;73564;45.026;38.952;2024-01-15T10:53:08;3.95;;;1.67;;
83595;SDS011;73564;45.026;38.952;2024-01-15T10:55:37;3.42;;;1.48;;
83595;SDS011;73564;45.026;38.952;2024-01-15T10:58:04;3.50;;;1.40;;
83595;SDS011;73564;45.026;38.952;2024-01-15T11:00:35;6.93;;;1.73;;
83595;SDS011;73564;45.026;38.952;2024-01-15T11:03:05;3.58;;;1.85;;
83595;SDS011;73564;45.026;38.952;2024-01-15T11:05:38;3.75;;;1.90;;
83595;SDS011;73564;45.026;38.952;2024-01-15T11:08:07;5.10;;;2.05;;
83595;SDS011;73564;45.026;38.952;2024-01-15T11:18:29;4.40;;;1.98;;
83595;SDS011;73564;45.026;38.952;2024-01-15T11:29:40;5.40;;;1.90;;
83595;SDS011;73564;45.026;38.952;2024-01-15T11:31:57;5.22;;;1.58;;
83595;SDS011;73564;45.026;38.952;2024-01-15T11:37:27;3.78;;;1.45;;
83595;SDS011;73564;45.026;38.952;2024-01-15T11:39:56;3.03;;;1.50;;
83595;SDS011;73564;45.026;38.952;2024-01-15T11:44:54;4.35;;;1.45;;
83595;SDS011;73564;45.026;38.952;2024-01-15T11:48:21;4.32;;;1.70;;
83595;SDS011;73564;45.026;38.952;2024-01-15T11:50:21;5.68;;;1.63;;
83595;SDS011;73564;45.026;38.952;2024-01-15T11:52:56;3.35;;;1.02;;
83595;SDS011;73564;45.026;38.952;2024-01-15T11:55:34;2.97;;;1.48;;
83595;SDS011;73564;45.026;38.952;2024-01-15T11:58:07;4.03;;;1.67;;
83595;SDS011;73564;45.026;38.952;2024-01-15T12:03:08;1.95;;;1.20;;
83595;SDS011;73564;45.026;38.952;2024-01-15T12:05:36;2.92;;;1.02;;
83595;SDS011;73564;45.026;38.952;2024-01-15T12:08:03;3.50;;;1.45;;
83595;SDS011;73564;45.026;38.952;2024-01-15T12:10:35;3.35;;;1.40;;
83595;SDS011;73564;45.026;38.952;2024-01-15T12:13:12;4.00;;;1.48;;
83595;SDS011;73564;45.026;38.952;2024-01-15T12:15:40;1.40;;;0.70;;
83595;SDS011;73564;45.026;38.952;2024-01-15T12:18:12;2.92;;;1.40;;
83595;SDS011;73564;45.026;38.952;2024-01-15T12:20:42;4.53;;;1.25;;
83595;SDS011;73564;45.026;38.952;2024-01-15T12:23:08;3.63;;;1.20;;
83595;SDS011;73564;45.026;38.952;2024-01-15T12:25:35;4.20;;;1.40;;
83595;SDS011;73564;45.026;38.952;2024-01-15T12:28:01;2.00;;;1.10;;
83595;SDS011;73564;45.026;38.952;2024-01-15T12:30:28;2.25;;;1.15;;
83595;SDS011;73564;45.026;38.952;2024-01-15T12:32:56;2.60;;;1.02;;
83595;SDS011;73564;45.026;38.952;2024-01-15T12:35:23;1.85;;;0.63;;
83595;SDS011;73564;45.026;38.952;2024-01-15T12:37:51;2.92;;;0.95;;
83595;SDS011;73564;45.026;38.952;2024-01-15T12:40:19;2.63;;;0.98;;
83595;SDS011;73564;45.026;38.952;2024-01-15T12:42:46;3.63;;;1.15;;
83595;SDS011;73564;45.026;38.952;2024-01-15T12:45:12;4.63;;;1.67;;
83595;SDS011;73564;45.026;38.952;2024-01-15T12:47:38;1.98;;;0.88;;
83595;SDS011;73564;45.026;38.952;2024-01-15T12:50:07;2.20;;;0.90;;
83595;SDS011;73564;45.026;38.952;2024-01-15T12:52:34;1.88;;;0.80;;
83595;SDS011;73564;45.026;38.952;2024-01-15T12:55:00;2.17;;;1.10;;
83595;SDS011;73564;45.026;38.952;2024-01-15T12:57:26;5.88;;;1.48;;
83595;SDS011;73564;45.026;38.952;2024-01-15T12:59:54;3.45;;;1.50;;
83595;SDS011;73564;45.026;38.952;2024-01-15T13:02:20;2.90;;;1.15;;
83595;SDS011;73564;45.026;38.952;2024-01-15T13:04:46;3.40;;;0.82;;
83595;SDS011;73564;45.026;38.952;2024-01-15T13:07:11;2.50;;;1.27;;
83595;SDS011;73564;45.026;38.952;2024-01-15T13:09:38;2.10;;;1.00;;
83595;SDS011;73564;45.026;38.952;2024-01-15T13:12:03;3.08;;;1.65;;
83595;SDS011;73564;45.026;38.952;2024-01-15T13:14:30;3.88;;;0.95;;
83595;SDS011;73564;45.026;38.952;2024-01-15T13:16:58;2.53;;;1.25;;
83595;SDS011;73564;45.026;38.952;2024-01-15T13:19:24;3.28;;;1.05;;
83595;SDS011;73564;45.026;38.952;2024-01-15T13:21:50;3.75;;;1.05;;
83595;SDS011;73564;45.026;38.952;2024-01-15T13:24:17;3.85;;;1.40;;
83595;SDS011;73564;45.026;38.952;2024-01-15T13:26:43;3.83;;;1.45;;
83595;SDS011;73564;45.026;38.952;2024-01-15T13:29:08;3.38;;;1.10;;
83595;SDS011;73564;45.026;38.952;2024-01-15T13:31:34;2.22;;;1.02;;
83595;SDS011;73564;45.026;38.952;2024-01-15T13:34:00;3.70;;;1.15;;
83595;SDS011;73564;45.026;38.952;2024-01-15T13:36:26;3.35;;;1.50;;
83595;SDS011;73564;45.026;38.952;2024-01-15T13:38:52;2.72;;;1.00;;
83595;SDS011;73564;45.026;38.952;2024-01-15T13:41:19;2.40;;;0.80;;
83595;SDS011;73564;45.026;38.952;2024-01-15T13:43:50;2.47;;;0.88;;
83595;SDS011;73564;45.026;38.952;2024-01-15T13:46:18;4.88;;;1.23;;
83595;SDS011;73564;45.026;38.952;2024-01-15T13:48:45;3.58;;;1.00;;
83595;SDS011;73564;45.026;38.952;2024-01-15T13:51:11;1.60;;;0.90;;
83595;SDS011;73564;45.026;38.952;2024-01-15T13:53:40;1.55;;;0.75;;
83595;SDS011;73564;45.026;38.952;2024-01-15T13:56:06;4.75;;;1.50;;
83595;SDS011;73564;45.026;38.952;2024-01-15T13:58:33;2.08;;;1.20;;
83595;SDS011;73564;45.026;38.952;2024-01-15T14:01:00;1.35;;;0.75;;
83595;SDS011;73564;45.026;38.952;2024-01-15T14:03:26;2.78;;;0.93;;
83595;SDS011;73564;45.026;38.952;2024-01-15T14:05:52;3.65;;;0.98;;
83595;SDS011;73564;45.026;38.952;2024-01-15T14:08:18;2.28;;;1.23;;
83595;SDS011;73564;45.026;38.952;2024-01-15T14:10:44;2.33;;;1.30;;
83595;SDS011;73564;45.026;38.952;2024-01-15T14:13:10;1.83;;;1.15;;
83595;SDS011;73564;45.026;38.952;2024-01-15T14:15:36;2.67;;;1.30;;
83595;SDS011;73564;45.026;38.952;2024-01-15T14:18:02;4.47;;;1.20;;
83595;SDS011;73564;45.026;38.952;2024-01-15T14:20:28;1.63;;;0.75;;
83595;SDS011;73564;45.026;38.952;2024-01-15T14:22:54;2.38;;;1.20;;
83595;SDS011;73564;45.026;38.952;2024-01-15T14:25:20;3.53;;;1.40;;
83595;SDS011;73564;45.026;38.952;2024-01-15T14:27:46;3.08;;;1.20;;
83595;SDS011;73564;45.026;38.952;2024-01-15T14:30:12;3.75;;;1.45;;
83595;SDS011;73564;45.026;38.952;2024-01-15T14:32:40;3.35;;;1.13;;
83595;SDS011;73564;45.026;38.952;2024-01-15T14:35:06;4.20;;;1.30;;
83595;SDS011;73564;45.026;38.952;2024-01-15T14:37:33;3.70;;;0.85;;
83595;SDS011;73564;45.026;38.952;2024-01-15T14:39:59;1.98;;;0.80;;
83595;SDS011;73564;45.026;38.952;2024-01-15T14:42:25;3.22;;;1.10;;
83595;SDS011;73564;45.026;38.952;2024-01-15T14:44:51;4.05;;;1.42;;
83595;SDS011;73564;45.026;38.952;2024-01-15T14:47:16;4.28;;;1.25;;
83595;SDS011;73564;45.026;38.952;2024-01-15T14:49:42;1.80;;;1.08;;
83595;SDS011;73564;45.026;38.952;2024-01-15T14:52:08;2.40;;;1.20;;
83595;SDS011;73564;45.026;38.952;2024-01-15T14:54:34;3.10;;;1.20;;
83595;SDS011;73564;45.026;38.952;2024-01-15T14:57:00;4.68;;;1.25;;
83595;SDS011;73564;45.026;38.952;2024-01-15T14:59:26;3.47;;;1.05;;
83595;SDS011;73564;45.026;38.952;2024-01-15T15:01:54;3.88;;;1.63;;
83595;SDS011;73564;45.026;38.952;2024-01-15T15:04:20;6.10;;;1.70;;